• Join FlightAware (Why Join?)
  • Login
  • US Flag 
07:32PM EDT


 

Airport Tracker/Info


-or-


 

Live Flight TrackerFlight Track Log ✈ AAL185 ✈ 12-May-2013 ✈ KJFK - KLAX

Flight Track Log - Related Links

Times and Time Zones

All times are in EDT time to prevent confusion due to time zone crossing. See the AAL185 flight status page for this flight to view local times or setup timezone preferences in your user account.

Time Position Orientation Groundspeed Altitude Reporting Facility
EDT Latitude Longitude Course Direction KTS MPH feet Rate Location/Type
10:27PM 40.6333 -73.8333 270° West 141 162 1,900  Level New York TRACON
10:28PM 40.6167 -73.9000 252° West 212 244 3,700 2,520 Climbing New York TRACON
10:29PM 40.5500 -73.9333 201° Southwest 253 291 7,000 3,060 Climbing New York TRACON
10:30PM 40.3405 -74.2436 232° Southwest  Level FlightAware Approximate
10:30PM 40.5000 -73.9833 217° Southwest 264 304 9,900  Level New York TRACON
10:31PM 40.2677 -74.3649 232° Southwest  Level FlightAware Approximate
10:32PM 40.2000 -74.4840 270° West  Level FlightAware Approximate
10:32PM 40.4111 -74.1511 235° Southwest 278 320 14,700  Level New York Center
10:33PM 40.3978 -74.2539 260° West 296 341 16,500 1,680 Climbing New York Center
10:34PM 40.3814 -74.3783 260° West 324 373 18,100 1,860 Climbing New York Center
10:35PM 40.3639 -74.4783 257° West 324 373 20,300 2,160 Climbing New York Center
10:36PM 40.3519 -74.5919 262° West 324 373 22,500 2,100 Climbing New York Center
10:37PM 40.3353 -74.7108 260° West 329 379 24,500 1,920 Climbing New York Center
10:38PM 40.3189 -74.8297 260° West 334 384 26,400 1,800 Climbing New York Center
10:39PM 40.3019 -74.9539 260° West 334 384 28,200 1,680 Climbing New York Center
10:40PM 40.2850 -75.0753 260° West 339 390 29,800 1,320 Climbing New York Center
10:41PM 40.2658 -75.2019 259° West 349 402 30,900 1,200 Climbing New York Center
10:42PM 40.2483 -75.3314 260° West 356 410 32,200 1,260 Climbing New York Center
10:43PM 40.2431 -75.4642 267° West 366 421 33,400 1,140 Climbing New York Center
10:44PM 40.2378 -75.6000 267° West 371 427 34,500 900 Climbing New York Center
10:45PM 40.2319 -75.7408 267° West 376 433 35,300 840 Climbing New York Center
10:46PM 40.2244 -75.8681 266° West 389 448 36,200 720 Climbing New York Center
10:47PM 40.2150 -76.0306 266° West 397 457 36,800 660 Climbing New York Center
10:48PM 40.2108 -76.1744 268° West 402 463 37,600 600 Climbing New York Center
10:49PM 40.2042 -76.3178 267° West 402 463 38,000 180 Climbing New York Center
10:50PM 40.1992 -76.4642 267° West 402 463 38,000  Level New York Center
10:52PM 40.1869 -76.7781 267° West 394 453 38,000  Level Cleveland Center
10:53PM 40.1811 -76.9117 267° West 407 468 38,000  Level Cleveland Center
10:54PM 40.1753 -77.0586 267° West 407 468 38,000  Level Cleveland Center
10:55PM 40.1669 -77.2031 266° West 407 468 38,000  Level Cleveland Center
10:56PM 40.1608 -77.3475 267° West 407 468 38,000  Level Cleveland Center
10:57PM 40.1564 -77.4889 268° West 407 468 38,000  Level Cleveland Center
10:58PM 40.1497 -77.6306 267° West 407 468 38,000  Level Cleveland Center
10:59PM 40.1453 -77.7775 268° West 407 468 38,000  Level Cleveland Center
11:00PM 40.1322 -77.9381 264° West 407 468 38,000  Level Cleveland Center
11:01PM 40.1253 -78.0822 266° West 407 468 38,000  Level Cleveland Center
11:02PM 40.1178 -78.2239 266° West 407 468 38,000  Level Cleveland Center
11:03PM 40.1122 -78.3678 267° West 407 468 38,000  Level Cleveland Center
11:04PM 40.1025 -78.5094 265° West 407 468 38,000  Level Cleveland Center
11:05PM 40.0967 -78.6533 267° West 407 468 38,000  Level Cleveland Center
11:06PM 40.0886 -78.7947 266° West 407 468 38,000  Level Cleveland Center
11:07PM 40.0803 -78.9389 266° West 407 468 38,000  Level Cleveland Center
11:08PM 40.0719 -79.0828 266° West 407 468 38,000  Level Cleveland Center
11:09PM 40.0633 -79.2267 266° West 407 468 38,000  Level Cleveland Center
11:10PM 40.0628 -79.3733 270° West 407 468 38,000  Level Cleveland Center
11:11PM 40.0600 -79.5169 269° West 402 463 38,000  Level Cleveland Center
11:12PM 40.0553 -79.6664 268° West 407 468 38,000  Level Cleveland Center
11:13PM 40.0478 -79.8128 266° West 407 468 38,000  Level Cleveland Center
11:14PM 40.0406 -79.9567 266° West 402 463 38,000  Level Cleveland Center
11:15PM 40.0328 -80.1031 266° West 402 463 38,000  Level Cleveland Center
11:16PM 40.0250 -80.2442 266° West 402 463 38,000  Level Cleveland Center
11:17PM 40.0128 -80.3933 264° West 407 468 38,000  Level Cleveland Center
11:18PM 40.0047 -80.5208 265° West 407 468 38,000  Level Cleveland Center
11:19PM 39.9919 -80.6669 264° West 407 468 38,000  Level Cleveland Center
11:20PM 39.9814 -80.8133 265° West 407 468 38,000  Level Cleveland Center
11:21PM 39.9706 -80.9597 265° West 407 468 38,000  Level Cleveland Center
11:22PM 39.9617 -81.1058 266° West 407 468 38,000  Level Cleveland Center
11:22PM 39.9539 -81.1600 259° West 406 467 38,000  Level Indianapolis Center
11:24PM 39.9428 -81.3061 264° West 406 467 38,000  Level Indianapolis Center
11:25PM 39.9292 -81.4714 264° West 408 470 38,000  Level Indianapolis Center
11:26PM 39.9172 -81.6206 264° West 412 474 38,000  Level Indianapolis Center
11:27PM 39.9044 -81.7694 264° West 411 473 38,000  Level Indianapolis Center
11:28PM 39.8928 -81.9186 264° West 411 473 38,000  Level Indianapolis Center
11:29PM 39.8806 -82.0672 264° West 411 473 38,000  Level Indianapolis Center
11:30PM 39.8669 -82.2161 263° West 411 473 38,000  Level Indianapolis Center
11:31PM 39.8547 -82.3656 264° West 411 473 38,000  Level Indianapolis Center
11:32PM 39.8411 -82.5125 263° West 407 468 38,000  Level Indianapolis Center
11:33PM 39.8294 -82.6606 264° West 408 470 38,000  Level Indianapolis Center
11:34PM 39.8153 -82.8092 263° West 410 472 38,000  Level Indianapolis Center
11:35PM 39.8022 -82.9567 263° West 408 470 38,000  Level Indianapolis Center
11:36PM 39.7886 -83.1053 263° West 410 472 38,000  Level Indianapolis Center
11:37PM 39.7753 -83.2542 263° West 409 471 38,000  Level Indianapolis Center
11:38PM 39.7617 -83.4019 263° West 407 468 38,000  Level Indianapolis Center
11:39PM 39.7469 -83.5553 263° West 409 471 38,000  Level Indianapolis Center
11:40PM 39.7336 -83.6808 262° West 412 474 38,000  Level Indianapolis Center
11:41PM 39.7197 -83.8303 263° West 412 474 38,000  Level Indianapolis Center
11:42PM 39.7050 -83.9806 263° West 413 475 38,000  Level Indianapolis Center
11:43PM 39.6906 -84.1300 263° West 414 476 38,000  Level Indianapolis Center
11:44PM 39.6742 -84.2800 262° West 416 479 38,000  Level Indianapolis Center
11:45PM 39.6611 -84.4289 264° West 413 475 38,000  Level Indianapolis Center
11:46PM 39.6433 -84.5778 261° West 414 476 38,000  Level Indianapolis Center
11:47PM 39.6286 -84.7258 263° West 410 472 38,000  Level Indianapolis Center
11:48PM 39.6122 -84.8747 262° West 411 473 38,000  Level Indianapolis Center
11:49PM 39.5961 -85.0256 262° West 410 472 38,000  Level Indianapolis Center
11:50PM 39.5797 -85.1703 262° West 407 468 38,000  Level Indianapolis Center
11:51PM 39.5628 -85.3147 261° West 408 470 38,000  Level Indianapolis Center
11:52PM 39.5475 -85.4603 262° West 407 468 38,000  Level Indianapolis Center
11:53PM 39.5297 -85.6056 261° West 409 471 38,000  Level Indianapolis Center
11:54PM 39.5131 -85.7517 262° West 411 473 38,000  Level Indianapolis Center
11:55PM 39.4964 -85.8989 262° West 412 474 38,000  Level Indianapolis Center
11:56PM 39.4778 -86.0461 261° West 413 475 38,000  Level Indianapolis Center
11:57PM 39.4608 -86.1956 262° West 416 479 38,000  Level Indianapolis Center
11:58PM 39.4431 -86.3436 261° West 414 476 38,000  Level Indianapolis Center
11:59PM 39.4239 -86.4931 261° West 418 481 38,000  Level Indianapolis Center
12:00AM 39.4067 -86.6422 262° West 420 483 38,000  Level Indianapolis Center
12:01AM 39.3872 -86.7906 260° West 419 482 38,000  Level Indianapolis Center
12:02AM 39.3683 -86.9400 261° West 421 484 38,000  Level Indianapolis Center
12:03AM 39.3500 -87.0892 261° West 422 486 38,000  Level Indianapolis Center
12:04AM 39.3294 -87.2375 260° West 421 484 38,000  Level Indianapolis Center
12:05AM 39.3158 -87.3869 263° West 421 484 38,000  Level Indianapolis Center
12:06AM 39.3064 -87.5386 265° West 425 489 38,000  Level Indianapolis Center
12:07AM 39.2939 -87.7019 264° West 424 488 38,000  Level Indianapolis Center
12:08AM 39.2833 -87.8547 265° West 426 490 38,000  Level Indianapolis Center
12:08AM 39.2783 -87.9175 264° West 425 489 38,000  Level Kansas City Center
12:09AM 39.2667 -88.0700 264° West 426 490 38,000  Level Kansas City Center
12:10AM 39.2556 -88.2203 265° West 422 486 38,000  Level Kansas City Center
12:11AM 39.2417 -88.4011 264° West 422 486 38,000  Level Kansas City Center
12:12AM 39.2300 -88.5522 264° West 423 487 38,000  Level Kansas City Center
12:13AM 39.2183 -88.6744 263° West 423 487 38,000  Level Kansas City Center
12:14AM 39.2072 -88.8261 265° West 426 490 38,000  Level Kansas City Center
12:15AM 39.1908 -89.0078 263° West 426 490 38,000  Level Kansas City Center
12:16AM 39.1775 -89.1600 264° West 428 493 38,000  Level Kansas City Center
12:17AM 39.1647 -89.3122 264° West 429 494 38,000  Level Kansas City Center
12:18AM 39.1519 -89.4661 264° West 433 498 38,000  Level Kansas City Center
12:19AM 39.1381 -89.6183 263° West 432 497 38,000  Level Kansas City Center
12:20AM 39.1239 -89.7714 263° West 434 499 38,000  Level Kansas City Center
12:21AM 39.1089 -89.9358 263° West 434 499 38,000  Level Kansas City Center
12:22AM 39.0978 -90.0772 264° West 434 499 38,000  Level Kansas City Center
12:23AM 39.0828 -90.2308 263° West 436 502 38,000  Level Kansas City Center
12:24AM 39.0658 -90.3856 262° West 440 506 38,000  Level Kansas City Center
12:25AM 39.0511 -90.5403 263° West 441 507 38,000  Level Kansas City Center
12:26AM 39.0358 -90.6944 263° West 441 507 38,000  Level Kansas City Center
12:27AM 39.0219 -90.8489 263° West 440 506 38,000  Level Kansas City Center
12:28AM 39.0064 -91.0036 263° West 441 507 38,000  Level Kansas City Center
12:29AM 38.9908 -91.1611 263° West 444 511 38,000  Level Kansas City Center
12:31AM 38.9750 -91.3175 263° West 445 512 38,000  Level Kansas City Center
12:32AM 38.9589 -91.4744 263° West 445 512 38,000  Level Kansas City Center
12:33AM 38.9417 -91.6322 262° West 447 514 38,000  Level Kansas City Center
12:34AM 38.9239 -91.8042 262° West 452 520 38,000  Level Kansas City Center
12:35AM 38.9058 -91.9658 262° West 456 525 38,000  Level Kansas City Center
12:36AM 38.8886 -92.1269 262° West 458 527 38,000  Level Kansas City Center
12:37AM 38.8697 -92.2908 262° West 463 533 38,000  Level Kansas City Center
12:38AM 38.8511 -92.4506 262° West 458 527 38,000  Level Kansas City Center
12:39AM 38.8331 -92.6106 262° West 454 522 38,000  Level Kansas City Center
12:40AM 38.8144 -92.7725 262° West 458 527 38,000  Level Kansas City Center
12:41AM 38.7919 -92.9656 262° West 459 528 38,000  Level Kansas City Center
12:42AM 38.7739 -93.1258 262° West 457 526 38,000  Level Kansas City Center
12:43AM 38.7550 -93.2850 261° West 453 521 38,000  Level Kansas City Center
12:44AM 38.7361 -93.4433 261° West 452 520 38,000  Level Kansas City Center
12:45AM 38.7169 -93.6022 261° West 451 519 38,000  Level Kansas City Center
12:46AM 38.6972 -93.7631 261° West 456 525 38,000  Level Kansas City Center
12:47AM 38.6764 -93.9272 261° West 463 533 38,000  Level Kansas City Center
12:48AM 38.6564 -94.0833 261° West 463 533 38,000  Level Kansas City Center
12:49AM 38.6364 -94.2375 261° West 460 529 38,000  Level Kansas City Center
12:50AM 38.6158 -94.3939 260° West 463 533 38,000  Level Kansas City Center
12:51AM 38.5906 -94.5758 260° West 464 534 38,000  Level Kansas City Center
12:52AM 38.5692 -94.7336 260° West 468 539 38,000  Level Kansas City Center
12:53AM 38.5478 -94.8919 260° West 470 541 38,000  Level Kansas City Center
12:54AM 38.5258 -95.0514 260° West 474 545 38,000  Level Kansas City Center
12:55AM 38.5003 -95.2356 260° West 470 541 38,000  Level Kansas City Center
12:56AM 38.4781 -95.3967 260° West 472 543 38,000  Level Kansas City Center
12:57AM 38.4558 -95.5572 260° West 483 556 38,000  Level Kansas City Center
12:58AM 38.4336 -95.7139 260° West 472 543 38,000  Level Kansas City Center
12:59AM 38.4072 -95.8981 260° West 471 542 38,000  Level Kansas City Center
01:00AM 38.3842 -96.0589 260° West 477 549 38,000  Level Kansas City Center
01:01AM 38.3606 -96.2183 259° West 478 550 38,000  Level Kansas City Center
01:02AM 38.3364 -96.3769 259° West 476 548 38,000  Level Kansas City Center
01:03AM 38.3114 -96.5464 259° West 480 552 38,000  Level Kansas City Center
01:04AM 38.2867 -96.7131 259° West 480 552 38,000  Level Kansas City Center
01:05AM 38.2611 -96.8792 259° West 480 552 38,000  Level Kansas City Center
01:06AM 38.2358 -97.0450 259° West 479 551 38,000  Level Kansas City Center
01:07AM 38.2094 -97.2114 259° West 479 551 38,000  Level Kansas City Center
01:08AM 38.1828 -97.3769 258° West 481 554 38,000  Level Kansas City Center
01:09AM 38.1550 -97.5486 258° West 479 551 38,000  Level Kansas City Center
01:10AM 38.1292 -97.7142 259° West 480 552 38,000  Level Kansas City Center
01:11AM 38.1017 -97.8919 259° West 482 555 38,000  Level Kansas City Center
01:12AM 38.0739 -98.0583 258° West 482 555 38,000  Level Kansas City Center
01:13AM 38.0453 -98.2297 258° West 480 552 38,000  Level Kansas City Center
01:14AM 38.0181 -98.3944 258° West 482 555 38,000  Level Kansas City Center
01:15AM 37.9886 -98.5589 257° West 481 554 38,000  Level Kansas City Center
01:16AM 37.9597 -98.7228 257° West 480 552 38,000  Level Kansas City Center
01:17AM 37.9319 -98.8881 258° West 479 551 38,000  Level Kansas City Center
01:18AM 37.9025 -99.0522 257° West 479 551 38,000  Level Kansas City Center
01:19AM 37.8739 -99.2172 258° West 480 552 38,000  Level Kansas City Center
01:20AM 37.8436 -99.3819 257° West 481 554 38,000  Level Kansas City Center
01:21AM 37.8172 -99.5342 258° West 481 554 38,000  Level Kansas City Center
01:22AM 37.7833 -99.7186 257° West 482 555 38,000  Level Kansas City Center
01:23AM 37.7544 -99.8767 257° West 483 556 38,000  Level Kansas City Center
01:24AM 37.7256 -100.0350 257° West 484 557 38,000  Level Kansas City Center
01:25AM 37.6903 -100.2208 257° West 486 559 38,000  Level Kansas City Center
01:26AM 37.6611 -100.3828 257° West 491 565 38,000  Level Kansas City Center
01:27AM 37.6308 -100.5428 257° West 492 566 38,000  Level Kansas City Center
01:28AM 37.5994 -100.7131 257° West 495 570 38,000  Level Kansas City Center
01:29AM 37.5664 -100.8842 256° West 503 579 38,000  Level Kansas City Center
01:30AM 37.5333 -101.0558 256° West 505 581 38,000  Level Kansas City Center
01:31AM 37.4997 -101.2342 257° West 498 573 38,000  Level Kansas City Center
01:32AM 37.4681 -101.3981 256° West 500 575 38,000  Level Kansas City Center
01:33AM 37.4358 -101.5614 256° West 503 579 38,000  Level Kansas City Center
01:34AM 37.4031 -101.7247 256° West 503 579 38,000  Level Kansas City Center
01:35AM 37.3653 -101.9167 256° West 505 581 38,000  Level Kansas City Center
01:36AM 37.3322 -102.0825 256° West 509 586 38,000  Level Kansas City Center
01:37AM 37.2986 -102.2461 256° West 508 585 38,000  Level Kansas City Center
01:38AM 37.2581 -102.4381 255° West 509 586 38,000  Level Kansas City Center
01:39AM 37.2239 -102.6008 255° West 506 582 38,000  Level Kansas City Center
01:40AM 37.1908 -102.7639 256° West 505 581 38,000  Level Kansas City Center
01:41AM 37.1567 -102.9272 255° West 505 581 38,000  Level Kansas City Center
01:42AM 37.1131 -103.1328 255° West 508 585 38,000  Level Albuquerque Center
01:43AM 37.0722 -103.3236 255° West 507 583 38,000  Level Albuquerque Center
01:44AM 37.0364 -103.4897 255° West 512 589 38,000  Level Albuquerque Center
01:45AM 37.0011 -103.6550 255° West 513 590 38,000  Level Albuquerque Center
01:46AM 36.9653 -103.8206 255° West 512 589 38,000  Level Albuquerque Center
01:47AM 36.9231 -104.0131 255° West 512 589 38,000  Level Albuquerque Center
01:48AM 36.8861 -104.1789 254° West 515 593 38,000  Level Albuquerque Center
01:49AM 36.8492 -104.3431 254° West 513 590 38,000  Level Albuquerque Center
01:50AM 36.8133 -104.5078 255° West 512 589 38,000  Level Albuquerque Center
01:51AM 36.7697 -104.6983 254° West 513 590 38,000  Level Albuquerque Center
01:52AM 36.7333 -104.8644 255° West 515 593 38,000  Level Albuquerque Center
01:53AM 36.6933 -105.0367 254° West 515 593 38,000  Level Albuquerque Center
01:54AM 36.6525 -105.2192 254° West 514 592 38,000  Level Albuquerque Center
01:55AM 36.6136 -105.3825 254° West 515 593 38,000  Level Albuquerque Center
01:56AM 36.5778 -105.5289 253° West 517 595 38,000  Level Albuquerque Center
01:57AM 36.5386 -105.7003 254° West 517 595 38,000  Level Albuquerque Center
01:58AM 36.4939 -105.8944 254° West 518 596 38,000  Level Albuquerque Center
01:59AM 36.4553 -106.0603 254° West 522 601 38,000  Level Albuquerque Center
02:00AM 36.4083 -106.2494 253° West 515 593 38,000  Level Albuquerque Center
02:01AM 36.3683 -106.4125 253° West 516 594 38,000  Level Albuquerque Center
02:02AM 36.3297 -106.5769 254° West 517 595 38,000  Level Albuquerque Center
02:03AM 36.2839 -106.7678 253° West 518 596 38,000  Level Albuquerque Center
02:04AM 36.2428 -106.9294 253° West 517 595 38,000  Level Albuquerque Center
02:05AM 36.2017 -107.0922 253° West 517 595 38,000  Level Albuquerque Center
02:06AM 36.1611 -107.2558 253° West 518 596 38,000  Level Albuquerque Center
02:07AM 36.1128 -107.4444 252° West 517 595 38,000  Level Albuquerque Center
02:08AM 36.0714 -107.6069 253° West 517 595 38,000  Level Albuquerque Center
02:09AM 36.0286 -107.7686 252° West 517 595 38,000  Level Albuquerque Center
02:10AM 35.9797 -107.9578 252° West 517 595 38,000  Level Albuquerque Center
02:11AM 35.9367 -108.1194 252° West 517 595 38,000  Level Albuquerque Center
02:12AM 35.8939 -108.2811 252° West 516 594 38,000  Level Albuquerque Center
02:13AM 35.8500 -108.4422 251° West 517 595 38,000  Level Albuquerque Center
02:14AM 35.7992 -108.6306 252° West 515 593 38,000  Level Albuquerque Center
02:15AM 35.7561 -108.7933 252° West 516 594 38,000  Level Albuquerque Center
02:16AM 35.7119 -108.9550 251° West 516 594 38,000  Level Albuquerque Center
02:17AM 35.6689 -109.1161 252° West 515 593 38,000  Level Albuquerque Center
02:18AM 35.6189 -109.3044 252° West 516 594 38,000  Level Albuquerque Center
02:19AM 35.5753 -109.4658 252° West 517 595 38,000  Level Albuquerque Center
02:20AM 35.5303 -109.6264 251° West 519 597 38,000  Level Albuquerque Center
02:21AM 35.4856 -109.7869 251° West 519 597 38,000  Level Albuquerque Center
02:22AM 35.4325 -109.9753 251° West 526 605 38,000  Level Albuquerque Center
02:23AM 35.3892 -110.1356 252° West 521 600 38,000  Level Albuquerque Center
02:24AM 35.3431 -110.2953 251° West 520 598 38,000  Level Albuquerque Center
02:25AM 35.2942 -110.4528 249° West 517 595 38,000  Level Albuquerque Center
02:26AM 35.2397 -110.6386 250° West 518 596 38,000  Level Albuquerque Center
02:27AM 35.1958 -110.7994 252° West 520 598 38,000  Level Albuquerque Center
02:28AM 35.1478 -110.9572 250° West 518 596 38,000  Level Albuquerque Center
02:29AM 35.0992 -111.1331 251° West 528 608 38,000  Level Albuquerque Center
02:30AM 35.0519 -111.3008 251° West 529 609 38,000  Level Albuquerque Center
02:31AM 35.0039 -111.4650 250° West 521 600 38,000  Level Albuquerque Center
02:32AM 34.9547 -111.6294 250° West 519 597 38,000  Level Albuquerque Center
02:33AM 34.9028 -111.8075 250° West 519 597 38,000  Level Albuquerque Center
02:34AM 34.8528 -111.9739 250° West 522 601 38,000  Level Albuquerque Center
02:35AM 34.8056 -112.1383 251° West 519 597 38,000  Level Albuquerque Center
02:36AM 34.7569 -112.3042 250° West 521 600 38,000  Level Albuquerque Center
02:37AM 34.7097 -112.4678 251° West 517 595 38,000  Level Albuquerque Center
02:38AM 34.6856 -112.6381 260° West 516 594 38,000  Level Albuquerque Center
02:39AM 34.6656 -112.8072 262° West 510 587 38,000  Level Albuquerque Center
02:40AM 34.6453 -112.9772 262° West 509 586 38,000  Level Albuquerque Center
02:41AM 34.6253 -113.1467 262° West 508 585 38,000  Level Albuquerque Center
02:42AM 34.6042 -113.3172 261° West 511 588 38,000  Level Albuquerque Center
02:43AM 34.5814 -113.4850 261° West 507 583 38,000  Level Albuquerque Center
02:44AM 34.5564 -113.6622 260° West 508 585 38,000  Level Albuquerque Center
02:45AM 34.5275 -113.8314 258° West 510 587 38,000  Level Albuquerque Center
02:46AM 34.5006 -113.9989 259° West 509 586 38,000  Level Albuquerque Center
02:47AM 34.4722 -114.1664 258° West 507 583 38,000  Level Albuquerque Center
02:48AM 34.4592 -114.2503 259° West 508 585 38,000  Level Los Angeles Center
02:49AM 34.4319 -114.4169 259° West 509 586 38,000  Level Los Angeles Center
02:50AM 34.4033 -114.5842 258° West 508 585 38,000  Level Los Angeles Center
02:51AM 34.3753 -114.7508 259° West 508 585 38,000  Level Los Angeles Center
02:52AM 34.3419 -114.9517 259° West 509 586 38,000  Level Los Angeles Center
02:53AM 34.3142 -115.1194 259° West 510 587 38,000  Level Los Angeles Center
02:54AM 34.2856 -115.2856 258° West 508 585 38,000  Level Los Angeles Center
02:55AM 34.2564 -115.4517 258° West 508 585 38,000  Level Los Angeles Center
02:56AM 34.2281 -115.6197 259° West 510 587 38,000  Level Los Angeles Center
02:57AM 34.1983 -115.7864 258° West 511 588 38,000 -420 Level Los Angeles Center
02:58AM 34.1722 -115.9333 258° West 510 587 37,200 -2,040 Descending Los Angeles Center
02:59AM 34.1419 -116.0994 258° West 508 585 34,000 -3,900 Descending Los Angeles Center
03:00AM 34.1081 -116.2850 258° West 510 587 29,400 -3,660 Descending Los Angeles Center
03:01AM 34.0778 -116.4536 258° West 514 592 25,900 -3,600 Descending Los Angeles Center
03:02AM 34.0414 -116.6481 257° West 501 577 21,500 -3,840 Descending Los Angeles Center
03:03AM 34.0139 -116.8000 258° West 475 547 18,300 -2,700 Descending Los Angeles Center
03:04AM 34.0000 -116.9000 261° West 440 506 17,000 -780 Descending Southern California TRACON
03:05AM 33.9667 -117.0500 255° West 385 443 17,000  Level Southern California TRACON
03:06AM 33.9667 -117.1667 270° West 388 447 17,000 -480 Level Southern California TRACON
03:07AM 33.9833 -117.3000 279° West 387 445 16,100 -1,020 Descending Southern California TRACON
03:08AM 33.9833 -117.4500 270° West 418 481 14,900 -1,140 Descending Southern California TRACON
03:09AM 33.9833 -117.6000 270° West 465 535 13,700 -1,080 Descending Southern California TRACON
03:10AM 33.9833 -117.7167 270° West 414 476 12,800 -1,020 Descending Southern California TRACON
03:11AM 34.0000 -117.8333 280° West 393 452 12,000 -1,020 Descending Southern California TRACON
03:12AM 34.0000 -117.9500 270° West 391 450 11,100 -960 Descending Southern California TRACON
03:13AM 34.0000 -118.0667 270° West 380 437 10,300 -720 Descending Southern California TRACON
03:13AM 34.0044 -118.1506 274° West 378 435 10,000 -180 Descending Los Angeles Center
03:14AM 34.0072 -118.2750 272° West 376 433 10,000 -300 Level Los Angeles Center
03:15AM 34.0089 -118.3811 271° West 324 373 9,500 -1,560 Descending Los Angeles Center
03:16AM 34.0092 -118.4772 270° West 293 337 6,900 -2,580 Descending Los Angeles Center
03:17AM 33.9983 -118.5678 262° West 273 314 4,400 -2,520 Descending Los Angeles Center